createdAt,value
2018-12-23T00:01:18.043Z,1.7
2018-12-23T00:04:18.072Z,1.7
2018-12-23T00:07:17.725Z,1.7
2018-12-23T00:10:18.044Z,1.7
2018-12-23T00:13:17.921Z,1.7
2018-12-23T00:16:18.109Z,1.7
2018-12-23T00:19:18.172Z,1.7
2018-12-23T00:22:18.098Z,1.7
2018-12-23T00:25:18.113Z,1.7
2018-12-23T00:28:18.387Z,1.7
2018-12-23T00:31:18.256Z,1.7
2018-12-23T00:34:17.999Z,1.7
2018-12-23T00:37:17.724Z,1.7
2018-12-23T00:40:18.088Z,1.7
2018-12-23T00:43:18.037Z,1.7
2018-12-23T00:46:17.133Z,1.7
2018-12-23T00:49:18.433Z,1.7
2018-12-23T00:52:18.765Z,1.7
2018-12-23T00:55:17.989Z,1.7
2018-12-23T00:58:18.597Z,1.7
2018-12-23T01:01:18.163Z,1.6
2018-12-23T01:04:18.503Z,1.6
2018-12-23T01:07:19.412Z,1.6
2018-12-23T01:10:18.882Z,1.6
2018-12-23T01:13:18.298Z,1.6
2018-12-23T01:16:18.056Z,1.6
2018-12-23T01:19:17.431Z,1.6
2018-12-23T01:22:18.223Z,1.6
2018-12-23T01:25:18.750Z,1.6
2018-12-23T01:28:18.795Z,1.6
2018-12-23T01:31:17.489Z,1.6
2018-12-23T01:34:18.943Z,1.6
2018-12-23T01:37:18.086Z,1.6
2018-12-23T01:40:17.098Z,1.6
2018-12-23T01:43:18.306Z,1.6
2018-12-23T01:46:18.043Z,1.6
2018-12-23T01:49:17.987Z,1.6
2018-12-23T01:52:18.605Z,1.6
2018-12-23T01:55:18.287Z,1.6
2018-12-23T01:58:18.373Z,1.6
2018-12-23T02:01:17.817Z,1.6
2018-12-23T02:04:18.021Z,1.6
2018-12-23T02:07:18.031Z,1.6
2018-12-23T02:10:19.140Z,1.6
2018-12-23T02:13:18.174Z,1.6
2018-12-23T02:16:18.709Z,1.6
2018-12-23T02:19:17.323Z,1.6
2018-12-23T02:22:17.699Z,1.6
2018-12-23T02:25:18.065Z,1.6
2018-12-23T02:28:17.838Z,1.6
2018-12-23T02:31:18.972Z,1.6
2018-12-23T02:34:18.120Z,1.6
2018-12-23T02:37:18.314Z,1.6
2018-12-23T02:40:18.258Z,1.6
2018-12-23T02:43:16.987Z,1.6
2018-12-23T02:46:17.819Z,1.6
2018-12-23T02:49:17.795Z,1.6
2018-12-23T02:52:17.242Z,1.6
2018-12-23T02:55:17.855Z,1.6
2018-12-23T02:58:17.727Z,1.6
2018-12-23T03:01:18.034Z,1.6
2018-12-23T03:04:18.711Z,1.6
2018-12-23T03:07:18.140Z,1.6
2018-12-23T03:10:18.367Z,1.6
2018-12-23T03:13:18.109Z,1.6
2018-12-23T03:16:18.178Z,1.6
2018-12-23T03:19:18.134Z,1.6
2018-12-23T03:22:18.106Z,1.6
2018-12-23T03:25:18.292Z,1.6
2018-12-23T03:28:18.025Z,1.6
2018-12-23T03:31:18.039Z,1.6
2018-12-23T03:34:18.076Z,1.6
2018-12-23T03:37:18.276Z,1.6
2018-12-23T03:40:18.016Z,1.6
2018-12-23T03:43:17.758Z,1.6
2018-12-23T03:46:18.213Z,1.6
2018-12-23T03:49:18.015Z,1.6
2018-12-23T03:52:18.316Z,1.6
2018-12-23T03:55:17.926Z,1.6
2018-12-23T03:58:18.057Z,1.6
2018-12-23T04:01:17.114Z,1.5
2018-12-23T04:04:18.220Z,1.5
2018-12-23T04:07:18.238Z,1.5
2018-12-23T04:10:18.361Z,1.5
2018-12-23T04:13:18.078Z,1.5
2018-12-23T04:16:18.188Z,1.5
2018-12-23T04:19:18.078Z,1.5
2018-12-23T04:22:18.280Z,1.5
2018-12-23T04:25:18.170Z,1.5
2018-12-23T04:28:18.157Z,1.5
2018-12-23T04:31:17.576Z,1.5
2018-12-23T04:34:17.798Z,1.5
2018-12-23T04:37:18.174Z,1.5
2018-12-23T04:40:18.431Z,1.5
2018-12-23T04:43:18.043Z,1.5
2018-12-23T04:46:18.087Z,1.5
2018-12-23T04:49:18.196Z,1.5
2018-12-23T04:52:17.993Z,1.5
2018-12-23T04:55:18.040Z,1.5
2018-12-23T04:58:18.124Z,1.5
2018-12-23T05:01:17.766Z,1.5
2018-12-23T05:04:17.953Z,1.5
2018-12-23T05:07:17.934Z,1.5
2018-12-23T05:10:17.853Z,1.5
2018-12-23T05:13:18.094Z,1.5
2018-12-23T05:16:18.114Z,1.5
2018-12-23T05:19:18.362Z,1.5
2018-12-23T05:22:18.085Z,1.5
2018-12-23T05:25:17.770Z,1.5
2018-12-23T05:28:17.716Z,1.5
2018-12-23T05:31:17.064Z,1.5
2018-12-23T05:34:17.937Z,1.5
2018-12-23T05:37:17.930Z,1.5
2018-12-23T05:40:18.318Z,1.5
2018-12-23T05:43:17.517Z,1.5
2018-12-23T05:46:18.011Z,1.5
2018-12-23T05:49:17.704Z,1.5
2018-12-23T05:52:17.906Z,1.5
2018-12-23T05:55:17.685Z,1.5
2018-12-23T05:58:18.300Z,1.5
2018-12-23T06:01:18.002Z,1.5
2018-12-23T06:04:18.012Z,1.5
2018-12-23T06:07:17.779Z,1.5
2018-12-23T06:10:17.706Z,1.5
2018-12-23T06:13:17.628Z,1.5
2018-12-23T06:16:17.893Z,1.5
2018-12-23T06:19:18.100Z,1.5
2018-12-23T06:22:18.309Z,1.5
2018-12-23T06:25:17.991Z,1.5
2018-12-23T06:28:18.214Z,1.5
2018-12-23T06:31:18.499Z,1.5
2018-12-23T06:34:18.005Z,1.5
2018-12-23T06:37:17.724Z,1.5
2018-12-23T06:40:18.102Z,1.5
2018-12-23T06:43:18.050Z,1.5
2018-12-23T06:46:17.645Z,1.5
2018-12-23T06:49:18.000Z,1.5
2018-12-23T06:52:17.951Z,1.5
2018-12-23T06:55:18.225Z,1.5
2018-12-23T06:58:17.621Z,1.5
2018-12-23T07:01:17.823Z,1.5
2018-12-23T07:04:18.302Z,1.5
2018-12-23T07:07:19.417Z,1.5
2018-12-23T07:10:17.850Z,1.5
2018-12-23T07:13:17.670Z,1.5
2018-12-23T07:16:17.930Z,1.5
2018-12-23T07:19:18.219Z,1.5
2018-12-23T07:22:17.677Z,1.5
2018-12-23T07:25:18.021Z,1.5
2018-12-23T07:28:17.921Z,1.5
2018-12-23T07:31:17.896Z,1.5
2018-12-23T07:34:17.855Z,1.5
2018-12-23T07:37:17.827Z,1.5
2018-12-23T07:40:17.800Z,1.5
2018-12-23T07:43:18.035Z,1.5
2018-12-23T07:46:17.961Z,1.5
2018-12-23T07:49:18.248Z,1.5
2018-12-23T07:52:18.336Z,1.5
2018-12-23T07:55:17.854Z,1.5
2018-12-23T07:58:18.092Z,1.5
2018-12-23T08:01:17.708Z,1.5
2018-12-23T08:04:17.729Z,1.5
2018-12-23T08:07:17.616Z,1.5
2018-12-23T08:10:17.840Z,1.5
2018-12-23T08:13:17.677Z,1.5
2018-12-23T08:16:17.708Z,1.5
2018-12-23T08:19:18.449Z,1.5
2018-12-23T08:22:17.956Z,1.5
2018-12-23T08:25:17.733Z,1.5
2018-12-23T08:28:17.590Z,1.5
2018-12-23T08:31:17.808Z,1.5
2018-12-23T08:34:17.578Z,1.5
2018-12-23T08:37:17.718Z,1.5
2018-12-23T08:40:17.660Z,1.5
2018-12-23T08:43:17.955Z,1.5
2018-12-23T08:46:17.549Z,1.5
2018-12-23T08:49:18.605Z,1.5
2018-12-23T08:52:18.088Z,1.5
2018-12-23T08:55:16.976Z,1.5
2018-12-23T08:58:18.089Z,1.5
2018-12-23T09:01:18.058Z,1.5
2018-12-23T09:04:17.769Z,1.5
2018-12-23T09:07:17.962Z,1.5
2018-12-23T09:10:17.737Z,1.5
2018-12-23T09:13:17.544Z,1.5
2018-12-23T09:16:18.391Z,1.5
2018-12-23T09:19:18.041Z,1.5
2018-12-23T09:22:20.070Z,1.5
2018-12-23T09:25:17.756Z,1.5
2018-12-23T09:28:18.223Z,1.5
2018-12-23T09:31:17.936Z,1.5
2018-12-23T09:34:17.592Z,1.5
2018-12-23T09:37:18.095Z,1.5
2018-12-23T09:40:18.129Z,1.5
2018-12-23T09:43:17.686Z,1.5
2018-12-23T09:46:18.262Z,1.5
2018-12-23T09:49:18.107Z,1.5
2018-12-23T09:52:17.911Z,1.5
2018-12-23T09:55:17.610Z,1.5
2018-12-23T09:58:17.814Z,1.5
2018-12-23T10:01:18.001Z,1.7
2018-12-23T10:04:16.816Z,1.7
2018-12-23T10:07:17.982Z,1.7
2018-12-23T10:10:17.646Z,1.7
2018-12-23T10:13:17.871Z,1.7
2018-12-23T10:16:17.539Z,1.7
2018-12-23T10:19:17.774Z,1.7
2018-12-23T10:22:18.067Z,1.7
2018-12-23T10:25:17.874Z,1.7
2018-12-23T10:28:17.898Z,1.7
2018-12-23T10:31:18.067Z,1.7
2018-12-23T10:34:18.059Z,1.7
2018-12-23T10:37:17.804Z,1.7
2018-12-23T10:40:18.280Z,1.7
2018-12-23T11:02:15.352Z,8.5
2018-12-23T11:05:14.371Z,8.5
2018-12-23T13:01:54.132Z,5.7
2018-12-23T13:04:54.437Z,5.7
2018-12-23T13:07:54.484Z,5.7
2018-12-23T13:10:53.852Z,5.7
2018-12-23T13:13:53.710Z,5.7
2018-12-23T14:00:46.894Z,4.8
2018-12-23T14:03:47.616Z,4.8
2018-12-23T14:06:47.687Z,4.8
2018-12-23T14:09:47.289Z,4.8
2018-12-23T14:12:47.199Z,4.8
2018-12-23T14:15:46.920Z,4.8
2018-12-23T14:18:46.891Z,4.8
2018-12-23T14:21:47.228Z,4.8
2018-12-23T14:24:47.050Z,4.8
2018-12-23T14:27:47.219Z,4.8
2018-12-23T14:30:47.258Z,4.8
2018-12-23T14:33:48.897Z,4.8
2018-12-23T14:36:49.014Z,4.8
2018-12-23T14:39:48.993Z,4.8
2018-12-23T14:42:47.853Z,4.8
2018-12-23T14:45:47.884Z,4.8
2018-12-23T14:48:48.758Z,4.8
2018-12-23T14:51:48.881Z,4.8
2018-12-23T14:54:49.864Z,4.8
2018-12-23T14:57:48.510Z,4.8
2018-12-23T15:00:48.320Z,4.5
2018-12-23T15:03:48.195Z,4.5
2018-12-23T15:06:48.312Z,4.5
2018-12-23T15:09:47.832Z,4.5
2018-12-23T15:12:48.168Z,4.5
2018-12-23T15:15:47.055Z,4.5
2018-12-23T15:18:46.833Z,4.5
2018-12-23T15:21:47.006Z,4.5
2018-12-23T15:24:46.975Z,4.5
2018-12-23T15:27:47.616Z,4.5
2018-12-23T15:30:46.936Z,4.5
2018-12-23T15:33:47.054Z,4.5
2018-12-23T15:36:47.767Z,4.5
2018-12-23T15:39:47.444Z,4.5
2018-12-23T15:42:47.038Z,4.5
2018-12-23T15:45:46.195Z,4.5
2018-12-23T15:48:46.970Z,4.5
2018-12-23T15:51:46.379Z,4.5
2018-12-23T15:54:47.108Z,4.5
2018-12-23T15:57:46.799Z,4.5
2018-12-23T16:00:46.916Z,4.5
2018-12-23T16:03:47.179Z,4.5
2018-12-23T16:06:46.769Z,4.5
2018-12-23T16:09:51.786Z,4.5
2018-12-23T16:12:57.426Z,4.5
2018-12-23T16:15:46.681Z,4.5
2018-12-23T16:18:47.116Z,4.5
2018-12-23T16:21:47.015Z,4.5
2018-12-23T18:01:34.564Z,2.8
2018-12-23T18:04:34.676Z,2.8
2018-12-23T18:07:34.380Z,2.8
2018-12-23T18:10:34.105Z,2.8
2018-12-23T18:13:34.799Z,2.8
2018-12-23T18:16:34.872Z,2.8
2018-12-23T18:19:34.739Z,2.8
2018-12-23T18:22:34.436Z,2.8
2018-12-23T18:25:34.009Z,2.8
2018-12-23T18:28:34.487Z,2.8
2018-12-23T18:31:34.374Z,2.8
2018-12-23T18:34:34.006Z,2.8
2018-12-23T18:37:34.689Z,2.8
2018-12-23T18:40:34.334Z,2.8
2018-12-23T18:43:34.133Z,2.8
2018-12-23T18:46:34.706Z,2.8
2018-12-23T18:49:34.654Z,2.8
2018-12-23T18:52:34.358Z,2.8
2018-12-23T18:55:34.279Z,2.8
2018-12-23T18:58:34.418Z,2.8
2018-12-23T19:01:34.534Z,2.7
2018-12-23T19:04:34.688Z,2.7
2018-12-23T19:07:33.206Z,2.7
2018-12-23T19:10:42.538Z,2.7
2018-12-23T19:13:34.416Z,2.7
2018-12-23T19:16:34.306Z,2.7
2018-12-23T19:19:34.091Z,2.7
2018-12-23T19:22:35.014Z,2.7
2018-12-23T19:25:34.432Z,2.7
2018-12-23T19:28:36.959Z,2.7
2018-12-23T19:31:34.519Z,2.7
2018-12-23T19:34:34.440Z,2.7
2018-12-23T19:37:34.585Z,2.7
2018-12-23T19:40:34.726Z,2.7
2018-12-23T19:43:34.454Z,2.7
2018-12-23T19:46:34.581Z,2.7
2018-12-23T19:49:34.446Z,2.7
2018-12-23T19:52:34.417Z,2.7
2018-12-23T19:55:34.540Z,2.7
2018-12-23T19:58:34.506Z,2.7
2018-12-23T20:01:34.830Z,2.6
2018-12-23T20:04:34.325Z,2.6
2018-12-23T20:07:34.252Z,2.6
2018-12-23T20:10:34.441Z,2.6
2018-12-23T20:13:34.150Z,2.6
2018-12-23T20:16:34.546Z,2.6
2018-12-23T20:19:34.518Z,2.6
2018-12-23T20:22:34.385Z,2.6
2018-12-23T20:25:34.343Z,2.6
2018-12-23T21:01:56.225Z,2.9
2018-12-23T21:04:56.173Z,2.9
2018-12-23T21:07:56.829Z,2.9
2018-12-23T21:10:55.154Z,2.9
2018-12-23T21:13:56.191Z,2.9
2018-12-23T21:16:56.871Z,2.9
2018-12-23T21:19:56.037Z,2.9
2018-12-23T21:22:56.231Z,2.9
2018-12-23T21:25:55.897Z,2.9
2018-12-23T21:28:56.527Z,2.9
2018-12-23T21:31:56.287Z,2.9
2018-12-23T21:34:56.067Z,2.9
2018-12-23T21:37:56.231Z,2.9
2018-12-23T21:40:55.413Z,2.9
2018-12-23T21:43:56.465Z,2.9
2018-12-23T21:46:56.459Z,2.9
2018-12-23T21:49:56.303Z,2.9
2018-12-23T21:52:56.120Z,2.9
2018-12-23T21:55:56.565Z,2.9
2018-12-23T21:58:56.950Z,2.9
2018-12-23T22:01:56.048Z,2.4
2018-12-23T22:04:56.219Z,2.4
2018-12-23T22:07:56.572Z,2.4
2018-12-23T22:10:56.667Z,2.4
2018-12-23T22:13:56.719Z,2.4
2018-12-23T22:16:56.512Z,2.4
2018-12-23T22:19:56.443Z,2.4
2018-12-23T22:22:58.801Z,2.4
2018-12-23T22:25:56.678Z,2.4
2018-12-23T22:28:56.671Z,2.4
2018-12-23T22:31:56.630Z,2.4
2018-12-23T22:34:56.246Z,2.4
2018-12-23T22:37:55.393Z,2.4
2018-12-23T22:40:56.408Z,2.4
2018-12-23T22:43:56.215Z,2.4
2018-12-23T22:46:56.494Z,2.4
2018-12-23T22:50:01.137Z,2.4
2018-12-23T22:52:56.120Z,2.4
2018-12-23T22:55:56.868Z,2.4
2018-12-23T22:58:56.433Z,2.4
2018-12-23T23:01:56.335Z,2.2
2018-12-23T23:04:55.787Z,2.2
2018-12-23T23:07:56.201Z,2.2
2018-12-23T23:10:56.634Z,2.2
2018-12-23T23:13:56.465Z,2.2
2018-12-23T23:16:56.284Z,2.2
2018-12-23T23:19:56.157Z,2.2
2018-12-23T23:22:56.376Z,2.2
2018-12-23T23:25:56.037Z,2.2
2018-12-23T23:28:55.273Z,2.2
2018-12-23T23:31:56.489Z,2.2
2018-12-23T23:34:56.564Z,2.2
2018-12-23T23:37:56.705Z,2.2
2018-12-23T23:40:56.166Z,2.2
2018-12-23T23:43:56.982Z,2.2
2018-12-23T23:46:56.522Z,2.2
2018-12-23T23:49:56.248Z,2.2
2018-12-23T23:52:56.642Z,2.2
2018-12-23T23:55:56.339Z,2.2
2018-12-23T23:58:56.265Z,2.2
